createdAt,value
2022-12-13T00:02:25.948Z,-8.38
2022-12-13T00:04:52.336Z,-8.55
2022-12-13T00:07:18.686Z,-8.68
2022-12-13T00:09:45.076Z,-8.82
2022-12-13T00:12:11.400Z,-8.55
2022-12-13T00:14:37.754Z,-8.49
2022-12-13T00:17:04.097Z,-8.41
2022-12-13T00:19:30.439Z,-8.46
2022-12-13T00:21:56.837Z,-8.55
2022-12-13T00:24:23.240Z,-8.85
2022-12-13T00:26:49.555Z,-8.76
2022-12-13T00:29:15.966Z,-8.70
2022-12-13T00:34:29.181Z,-8.71
2022-12-13T00:36:55.909Z,-8.72
2022-12-13T00:39:22.263Z,-8.90
2022-12-13T00:41:48.581Z,-8.93
2022-12-13T00:44:15.139Z,-8.93
2022-12-13T00:46:42.062Z,-9.15
2022-12-13T00:49:10.239Z,-8.99
2022-12-13T00:51:36.686Z,-8.68
2022-12-13T00:54:03.329Z,-8.73
2022-12-13T00:56:31.156Z,-8.71
2022-12-13T00:58:57.976Z,-8.72
2022-12-13T01:01:26.191Z,-8.72
2022-12-13T01:03:56.682Z,-8.73
2022-12-13T01:06:43.422Z,-8.74
2022-12-13T01:09:14.417Z,-8.94
2022-12-13T01:11:40.769Z,-8.98
2022-12-13T01:14:07.219Z,-8.87
2022-12-13T01:16:33.650Z,-8.92
2022-12-13T01:19:00.212Z,-8.76
2022-12-13T01:21:26.564Z,-8.90
2022-12-13T01:23:53.091Z,-8.98
2022-12-13T01:26:20.573Z,-8.80
2022-12-13T01:28:47.267Z,-8.95
2022-12-13T01:31:15.312Z,-9.28
2022-12-13T01:33:42.054Z,-9.14
2022-12-13T01:36:10.828Z,-9.01
2022-12-13T01:38:38.019Z,-9.03
2022-12-13T01:41:17.016Z,-8.93
2022-12-13T01:43:46.868Z,-8.93
2022-12-13T01:46:13.911Z,-9.01
2022-12-13T01:48:44.464Z,-8.98
2022-12-13T01:51:12.519Z,-8.94
2022-12-13T01:53:40.622Z,-9.07
2022-12-13T01:56:09.904Z,-9.11
2022-12-13T01:58:36.932Z,-9.23
2022-12-13T02:01:03.402Z,-9.24
2022-12-13T02:03:29.828Z,-9.06
2022-12-13T02:06:08.024Z,-9.11
2022-12-13T02:08:36.105Z,-9.00
2022-12-13T02:11:03.235Z,-9.13
2022-12-13T02:13:29.539Z,-9.27
2022-12-13T02:16:22.109Z,-9.20
2022-12-13T02:19:08.216Z,-9.33
2022-12-13T02:22:04.596Z,-9.17
2022-12-13T02:24:46.315Z,-9.17
2022-12-13T02:27:12.703Z,-9.04
2022-12-13T02:29:39.057Z,-8.98
2022-12-13T02:32:06.159Z,-9.04
2022-12-13T02:34:45.918Z,-9.03
2022-12-13T02:37:23.811Z,-9.40
2022-12-13T02:39:55.206Z,-9.37
2022-12-13T02:42:41.772Z,-9.19
2022-12-13T02:45:08.245Z,-9.20
2022-12-13T02:47:35.773Z,-9.31
2022-12-13T02:50:04.122Z,-9.12
2022-12-13T02:52:31.816Z,-9.02
2022-12-13T02:54:58.745Z,-9.06
2022-12-13T02:57:29.956Z,-9.36
2022-12-13T02:59:57.729Z,-9.41
2022-12-13T03:02:31.163Z,-9.40
2022-12-13T03:05:29.824Z,-9.23
2022-12-13T03:08:03.886Z,-9.25
2022-12-13T03:10:37.775Z,-9.16
2022-12-13T03:13:27.682Z,-9.17
2022-12-13T03:15:57.850Z,-9.65
2022-12-13T03:18:26.351Z,-9.59
2022-12-13T03:20:55.927Z,-9.63
2022-12-13T03:23:22.555Z,-9.80
2022-12-13T03:25:50.994Z,-9.59
2022-12-13T03:28:18.558Z,-9.31
2022-12-13T03:30:44.940Z,-9.25
2022-12-13T03:33:11.505Z,-9.24
2022-12-13T03:35:44.892Z,-9.15
2022-12-13T03:38:12.828Z,-9.43
2022-12-13T03:40:49.282Z,-9.49
2022-12-13T03:43:15.679Z,-9.42
2022-12-13T03:45:48.981Z,-9.53
2022-12-13T03:48:22.115Z,-9.68
2022-12-13T03:50:50.125Z,-9.91
2022-12-13T03:53:22.470Z,-9.86
2022-12-13T03:55:58.858Z,-9.67
2022-12-13T03:58:27.455Z,-9.66
2022-12-13T04:01:03.337Z,-9.71
2022-12-13T04:03:29.715Z,-9.70
2022-12-13T04:05:56.122Z,-9.70
2022-12-13T04:08:22.806Z,-9.79
2022-12-13T04:10:49.234Z,-9.65
2022-12-13T04:13:33.661Z,-9.57
2022-12-13T04:16:02.771Z,-9.62
2022-12-13T04:18:29.300Z,-9.53
2022-12-13T04:20:57.341Z,-9.65
2022-12-13T04:23:23.750Z,-9.73
2022-12-13T04:25:50.083Z,-9.68
2022-12-13T04:28:22.370Z,-9.73
2022-12-13T04:30:53.517Z,-9.80
2022-12-13T04:33:21.156Z,-9.67
2022-12-13T04:35:47.875Z,-9.63
2022-12-13T04:38:14.504Z,-9.71
2022-12-13T04:40:40.824Z,-9.76
2022-12-13T04:43:07.237Z,-9.72
2022-12-13T04:45:33.918Z,-9.66
2022-12-13T04:48:00.292Z,-9.67
2022-12-13T04:50:27.695Z,-9.82
2022-12-13T04:52:54.020Z,-9.91
2022-12-13T04:55:20.473Z,-9.93
2022-12-13T04:57:46.815Z,-9.79
2022-12-13T05:00:13.534Z,-9.80
2022-12-13T05:02:41.590Z,-9.85
2022-12-13T05:05:11.273Z,-9.75
2022-12-13T05:07:42.023Z,-10.00
2022-12-13T05:10:09.737Z,-9.93
2022-12-13T05:12:36.107Z,-9.85
2022-12-13T05:15:03.592Z,-9.88
2022-12-13T05:17:29.928Z,-9.91
2022-12-13T05:19:56.250Z,-9.87
2022-12-13T05:22:22.634Z,-9.77
2022-12-13T05:24:49.193Z,-9.92
2022-12-13T05:27:25.647Z,-10.05
2022-12-13T05:30:03.834Z,-9.90
2022-12-13T05:32:33.880Z,-9.75
2022-12-13T05:35:10.722Z,-10.03
2022-12-13T05:37:37.129Z,-9.89
2022-12-13T05:40:04.180Z,-9.89
2022-12-13T05:42:30.495Z,-9.90
2022-12-13T05:44:56.848Z,-10.01
2022-12-13T05:47:23.198Z,-10.15
2022-12-13T05:49:49.603Z,-9.98
2022-12-13T05:52:19.847Z,-10.18
2022-12-13T05:54:46.248Z,-10.18
2022-12-13T05:57:12.564Z,-10.02
2022-12-13T05:59:39.099Z,-10.15
2022-12-13T06:02:05.564Z,-10.04
2022-12-13T06:04:31.976Z,-9.86
2022-12-13T06:06:58.375Z,-9.87
2022-12-13T06:09:24.823Z,-9.90
2022-12-13T06:11:51.239Z,-9.90
2022-12-13T06:14:21.517Z,-10.09
2022-12-13T06:16:49.370Z,-9.93
2022-12-13T06:19:15.718Z,-10.21
2022-12-13T06:21:46.204Z,-10.22
2022-12-13T06:24:14.135Z,-10.37
2022-12-13T06:26:40.448Z,-10.41
2022-12-13T06:29:06.884Z,-10.44
2022-12-13T06:31:33.248Z,-10.28
2022-12-13T06:34:14.769Z,-9.99
2022-12-13T06:36:42.999Z,-9.98
2022-12-13T06:39:09.414Z,-10.10
2022-12-13T06:41:36.859Z,-10.20
2022-12-13T06:44:03.420Z,-10.28
2022-12-13T06:46:29.844Z,-10.32
2022-12-13T06:48:56.872Z,-10.34
2022-12-13T06:51:23.319Z,-10.33
2022-12-13T06:54:00.891Z,-10.33
2022-12-13T06:56:27.664Z,-10.35
2022-12-13T06:58:54.036Z,-10.40
2022-12-13T07:01:28.246Z,-10.27
2022-12-13T07:04:03.665Z,-10.23
2022-12-13T07:06:29.994Z,-10.19
2022-12-13T07:08:57.345Z,-10.23
2022-12-13T07:11:27.147Z,-10.36
2022-12-13T07:13:53.924Z,-10.35
2022-12-13T07:16:20.886Z,-10.22
2022-12-13T07:18:47.567Z,-10.34
2022-12-13T07:21:22.008Z,-10.31
2022-12-13T07:23:55.554Z,-9.74
2022-12-13T07:26:22.230Z,-9.23
2022-12-13T07:28:54.533Z,-8.52
2022-12-13T07:31:21.899Z,-8.21
2022-12-13T07:33:48.800Z,-7.76
2022-12-13T07:36:16.671Z,-7.77
2022-12-13T07:38:43.488Z,-7.62
2022-12-13T07:41:11.738Z,-7.09
2022-12-13T07:43:38.128Z,-7.01
2022-12-13T07:46:05.886Z,-6.77
2022-12-13T07:48:33.261Z,-6.62
2022-12-13T07:51:03.811Z,-6.18
2022-12-13T07:53:33.436Z,-5.64
2022-12-13T07:56:07.885Z,-4.95
2022-12-13T07:58:34.316Z,-4.50
2022-12-13T08:01:01.698Z,-4.09
2022-12-13T08:03:28.877Z,-3.99
2022-12-13T08:06:04.420Z,-4.06
2022-12-13T08:08:32.443Z,-3.53
2022-12-13T08:11:02.699Z,-3.36
2022-12-13T08:13:29.136Z,-3.38
2022-12-13T08:16:00.371Z,-3.40
2022-12-13T08:18:27.244Z,-3.47
2022-12-13T08:20:57.233Z,-2.99
2022-12-13T08:23:23.906Z,-3.09
2022-12-13T08:25:51.785Z,-2.61
2022-12-13T08:28:18.434Z,-2.43
2022-12-13T08:30:44.758Z,-2.44
2022-12-13T08:33:11.100Z,-2.30
2022-12-13T08:35:37.573Z,-1.89
2022-12-13T08:38:04.073Z,-1.79
2022-12-13T08:40:30.464Z,-1.74
2022-12-13T08:42:58.042Z,-1.45
2022-12-13T08:45:24.389Z,-1.77
2022-12-13T08:47:50.767Z,-1.52
2022-12-13T08:50:17.142Z,-1.24
2022-12-13T08:52:44.912Z,-1.15
2022-12-13T08:55:15.058Z,-1.27
2022-12-13T08:57:42.601Z,-1.28
2022-12-13T09:00:11.567Z,-1.25
2022-12-13T09:02:38.907Z,-1.14
2022-12-13T09:05:07.225Z,-1.08
2022-12-13T09:07:35.862Z,-0.89
2022-12-13T09:10:25.269Z,-0.81
2022-12-13T09:12:48.940Z,-0.83
2022-12-13T09:15:21.938Z,-0.97
2022-12-13T09:17:52.444Z,-0.74
2022-12-13T09:20:28.760Z,-0.54
2022-12-13T09:23:01.250Z,-0.61
2022-12-13T09:25:29.036Z,-0.61
2022-12-13T09:28:05.637Z,-0.47
2022-12-13T09:30:32.090Z,-0.33
2022-12-13T09:32:59.570Z,-0.33
2022-12-13T09:35:45.941Z,-0.15
2022-12-13T09:38:13.474Z,0.19
2022-12-13T09:40:40.912Z,0.09
2022-12-13T09:43:12.539Z,0.06
2022-12-13T09:45:43.285Z,-0.03
2022-12-13T09:48:22.172Z,-0.21
2022-12-13T09:50:57.966Z,0.14
2022-12-13T09:53:25.634Z,-0.06
2022-12-13T09:56:10.417Z,0.21
2022-12-13T09:58:37.489Z,0.10
2022-12-13T10:01:05.093Z,0.43
2022-12-13T10:03:31.574Z,0.50
2022-12-13T10:05:59.529Z,0.42
2022-12-13T10:08:33.426Z,0.51
2022-12-13T10:10:59.788Z,0.25
2022-12-13T10:13:41.627Z,0.22
2022-12-13T10:16:12.750Z,0.44
2022-12-13T10:18:41.093Z,0.68
2022-12-13T10:21:16.785Z,0.50
2022-12-13T10:24:22.708Z,0.23
2022-12-13T10:26:35.360Z,0.52
2022-12-13T10:29:05.402Z,0.54
2022-12-13T10:31:39.051Z,0.48
2022-12-13T10:34:05.472Z,0.74
2022-12-13T10:36:33.991Z,0.64
2022-12-13T10:39:00.887Z,0.22
2022-12-13T10:41:29.313Z,0.23
2022-12-13T10:44:14.865Z,0.38
2022-12-13T10:46:50.606Z,0.56
2022-12-13T10:49:18.340Z,0.62
2022-12-13T10:51:45.503Z,0.84
2022-12-13T10:54:15.953Z,0.84
2022-12-13T10:56:47.910Z,0.73
2022-12-13T10:59:23.245Z,0.75
2022-12-13T11:01:49.608Z,0.85
2022-12-13T11:04:27.970Z,0.81
2022-12-13T11:06:54.640Z,0.47
2022-12-13T11:09:28.871Z,0.54
2022-12-13T11:11:58.246Z,0.56
2022-12-13T11:14:32.154Z,0.58
2022-12-13T11:17:00.996Z,0.41
2022-12-13T11:19:31.174Z,0.52
2022-12-13T11:21:57.944Z,0.44
2022-12-13T11:24:25.909Z,0.39
2022-12-13T11:27:10.325Z,0.26
2022-12-13T11:29:44.488Z,0.20
2022-12-13T11:32:32.527Z,0.21
2022-12-13T11:35:19.125Z,0.19
2022-12-13T11:37:51.134Z,0.36
2022-12-13T11:40:21.476Z,0.41
2022-12-13T11:42:55.795Z,0.49
2022-12-13T11:45:26.103Z,0.23
2022-12-13T11:48:03.241Z,0.26
2022-12-13T11:50:48.799Z,0.22
2022-12-13T11:53:26.704Z,0.14
2022-12-13T11:55:53.388Z,-0.02
2022-12-13T12:01:19.536Z,0.08
2022-12-13T12:03:51.574Z,-0.02
2022-12-13T12:06:17.915Z,-0.15
2022-12-13T12:08:53.402Z,0.07
2022-12-13T12:11:31.713Z,0.01
2022-12-13T12:14:05.909Z,-0.09
2022-12-13T12:16:51.161Z,0.14
2022-12-13T12:19:19.974Z,0.11
2022-12-13T12:22:13.587Z,-0.57
2022-12-13T12:24:46.669Z,-0.16
2022-12-13T12:27:22.828Z,-0.52
2022-12-13T12:30:08.460Z,-0.20
2022-12-13T12:32:53.714Z,-0.09
2022-12-13T12:35:22.842Z,-0.03
2022-12-13T12:37:52.056Z,0.12
2022-12-13T12:41:07.274Z,-0.09
2022-12-13T12:43:30.588Z,-0.16
2022-12-13T12:46:00.149Z,-0.02
2022-12-13T12:51:25.761Z,-0.30
2022-12-13T12:54:03.741Z,-0.30
2022-12-13T12:56:33.588Z,-0.34
2022-12-13T12:59:19.691Z,-0.40
2022-12-13T13:01:53.683Z,-0.23
2022-12-13T13:04:23.382Z,-0.35
2022-12-13T13:07:25.327Z,-0.40
2022-12-13T13:09:54.637Z,-0.46
2022-12-13T13:12:29.377Z,-0.58
2022-12-13T13:14:57.324Z,-0.56
2022-12-13T13:17:23.604Z,-1.03
2022-12-13T13:20:01.424Z,-0.70
2022-12-13T13:22:43.443Z,-0.52
2022-12-13T13:25:13.919Z,-0.68
2022-12-13T13:27:41.631Z,-0.67
2022-12-13T13:30:28.371Z,-0.55
2022-12-13T13:32:55.928Z,-0.40
2022-12-13T13:35:28.620Z,-0.69
2022-12-13T13:37:55.466Z,-0.81
2022-12-13T13:40:30.522Z,-0.71
2022-12-13T13:43:06.657Z,-0.73
2022-12-13T13:45:51.290Z,-0.94
2022-12-13T13:48:37.132Z,-0.83
2022-12-13T13:51:22.221Z,-0.84
2022-12-13T13:54:03.867Z,-0.74
2022-12-13T13:56:36.305Z,-0.77
2022-12-13T13:59:11.472Z,-0.90
2022-12-13T14:01:44.484Z,-0.95
2022-12-13T14:04:34.050Z,-0.99
2022-12-13T14:07:24.993Z,-1.17
2022-12-13T14:10:17.122Z,-1.12
2022-12-13T14:12:43.416Z,-1.15
2022-12-13T14:15:29.767Z,-1.34
2022-12-13T14:18:21.723Z,-1.35
2022-12-13T14:21:01.058Z,-1.37
2022-12-13T14:23:28.550Z,-1.42
2022-12-13T14:26:01.928Z,-1.44
2022-12-13T14:28:46.971Z,-1.43
2022-12-13T14:31:20.107Z,-1.50
2022-12-13T14:33:49.782Z,-1.68
2022-12-13T14:36:17.667Z,-1.86
2022-12-13T14:38:44.641Z,-1.96
2022-12-13T14:41:16.415Z,-2.07
2022-12-13T14:43:48.472Z,-2.08
2022-12-13T14:46:16.640Z,-2.18
2022-12-13T14:48:48.325Z,-2.22
2022-12-13T14:51:31.337Z,-2.38
2022-12-13T14:53:58.608Z,-2.49
2022-12-13T15:03:24.133Z,-2.71
2022-12-13T15:05:57.952Z,-2.82
2022-12-13T15:08:24.848Z,-2.82
2022-12-13T15:10:53.678Z,-2.81
2022-12-13T15:13:29.847Z,-2.87
2022-12-13T15:16:01.746Z,-2.96
2022-12-13T15:18:36.423Z,-2.97
2022-12-13T15:21:02.973Z,-3.00
2022-12-13T15:23:41.721Z,-2.99
2022-12-13T15:26:27.997Z,-3.09
2022-12-13T15:29:10.128Z,-3.06
2022-12-13T15:31:37.859Z,-3.18
2022-12-13T15:34:34.626Z,-3.24
2022-12-13T15:37:06.852Z,-3.41
2022-12-13T15:39:37.960Z,-3.50
2022-12-13T15:42:04.640Z,-3.53
2022-12-13T15:44:39.398Z,-3.57
2022-12-13T15:47:13.231Z,-3.49
2022-12-13T15:49:56.778Z,-3.60
2022-12-13T15:52:36.171Z,-3.71
2022-12-13T15:55:05.290Z,-3.80
2022-12-13T15:57:33.916Z,-3.83
2022-12-13T16:00:08.516Z,-3.78
2022-12-13T16:02:37.848Z,-3.86
2022-12-13T16:05:09.459Z,-3.91
2022-12-13T16:07:38.135Z,-4.05
2022-12-13T16:10:05.266Z,-4.07
2022-12-13T16:12:39.765Z,-4.04
2022-12-13T16:15:28.795Z,-4.13
2022-12-13T16:18:05.617Z,-4.23
2022-12-13T16:20:32.156Z,-4.27
2022-12-13T16:22:59.953Z,-4.20
2022-12-13T16:25:26.850Z,-4.27
2022-12-13T16:27:53.321Z,-4.24
2022-12-13T16:30:22.710Z,-4.30
2022-12-13T16:35:37.563Z,-4.32
2022-12-13T16:38:09.403Z,-4.36
2022-12-13T16:40:36.111Z,-4.30
2022-12-13T16:43:04.088Z,-4.36
2022-12-13T16:45:47.277Z,-4.42
2022-12-13T16:48:14.409Z,-4.51
2022-12-13T16:50:45.055Z,-4.58
2022-12-13T16:53:17.068Z,-4.56
2022-12-13T16:55:45.643Z,-4.50
2022-12-13T16:58:25.953Z,-4.57
2022-12-13T17:00:52.488Z,-4.59
2022-12-13T17:03:26.034Z,-4.77
2022-12-13T17:05:58.718Z,-4.84
2022-12-13T17:08:25.573Z,-5.11
2022-12-13T17:10:58.241Z,-4.94
2022-12-13T17:13:25.566Z,-4.92
2022-12-13T17:15:59.575Z,-5.03
2022-12-13T17:18:26.453Z,-5.03
2022-12-13T17:20:53.818Z,-5.09
2022-12-13T17:23:25.002Z,-5.09
2022-12-13T17:25:58.722Z,-5.12
2022-12-13T17:28:25.449Z,-5.18
2022-12-13T17:30:54.632Z,-5.24
2022-12-13T17:33:21.748Z,-5.29
2022-12-13T17:35:48.207Z,-5.31
2022-12-13T17:38:14.671Z,-5.22
2022-12-13T17:40:41.068Z,-5.33
2022-12-13T17:43:07.732Z,-5.28
2022-12-13T17:45:34.304Z,-5.28
2022-12-13T17:48:00.654Z,-5.17
2022-12-13T17:50:28.073Z,-5.16
2022-12-13T17:52:54.409Z,-5.26
2022-12-13T17:55:20.753Z,-5.24
2022-12-13T17:57:47.243Z,-5.17
2022-12-13T18:00:14.060Z,-5.22
2022-12-13T18:02:41.665Z,-5.34
2022-12-13T18:05:25.096Z,-5.26
2022-12-13T18:07:51.591Z,-5.32
2022-12-13T18:10:17.943Z,-5.31
2022-12-13T18:12:45.665Z,-5.37
2022-12-13T18:15:12.047Z,-5.41
2022-12-13T18:18:09.568Z,-5.43
2022-12-13T18:20:25.111Z,-5.44
2022-12-13T18:22:52.516Z,-5.47
2022-12-13T18:25:19.863Z,-5.51
2022-12-13T18:27:47.149Z,-5.50
2022-12-13T18:30:13.628Z,-5.50
2022-12-13T18:32:43.014Z,-5.51
2022-12-13T18:35:09.511Z,-5.59
2022-12-13T18:37:35.848Z,-5.55
2022-12-13T18:40:04.874Z,-5.59
2022-12-13T18:42:31.253Z,-5.65
2022-12-13T18:44:57.612Z,-5.58
2022-12-13T18:47:25.832Z,-5.69
2022-12-13T18:49:55.010Z,-5.66
2022-12-13T18:52:23.699Z,-5.69
2022-12-13T18:54:54.460Z,-5.68
2022-12-13T18:57:21.745Z,-5.72
2022-12-13T18:59:54.443Z,-5.69
2022-12-13T19:02:21.788Z,-5.67
2022-12-13T19:04:54.848Z,-5.68
2022-12-13T19:07:22.138Z,-5.75
2022-12-13T19:09:54.957Z,-5.91
2022-12-13T19:12:21.510Z,-5.78
2022-12-13T19:14:54.811Z,-5.93
2022-12-13T19:17:21.722Z,-5.74
2022-12-13T19:19:49.121Z,-5.84
2022-12-13T19:22:15.975Z,-5.73
2022-12-13T19:24:42.452Z,-5.76
2022-12-13T19:27:08.883Z,-5.77
2022-12-13T19:29:35.212Z,-5.94
2022-12-13T19:32:01.676Z,-6.01
2022-12-13T19:34:28.076Z,-5.92
2022-12-13T19:36:54.468Z,-5.88
2022-12-13T19:39:20.923Z,-5.95
2022-12-13T19:41:47.261Z,-6.06
2022-12-13T19:44:13.740Z,-6.00
2022-12-13T19:46:40.216Z,-6.07
2022-12-13T19:49:06.642Z,-6.02
2022-12-13T19:51:38.988Z,-5.92
2022-12-13T19:54:06.399Z,-6.18
2022-12-13T19:56:32.793Z,-6.07
2022-12-13T19:58:59.236Z,-5.93
2022-12-13T20:01:25.783Z,-5.99
2022-12-13T20:03:52.247Z,-5.97
2022-12-13T20:06:22.094Z,-6.00
2022-12-13T20:08:48.861Z,-5.99
2022-12-13T20:11:17.178Z,-6.00
2022-12-13T20:13:43.694Z,-6.04
2022-12-13T20:16:14.922Z,-6.17
2022-12-13T20:18:41.334Z,-6.22
2022-12-13T20:21:13.222Z,-6.08
2022-12-13T20:23:41.213Z,-6.02
2022-12-13T20:26:09.189Z,-5.97
2022-12-13T20:28:35.537Z,-6.07
2022-12-13T20:31:02.880Z,-5.98
2022-12-13T20:33:30.357Z,-5.99
2022-12-13T20:36:23.559Z,-5.99
2022-12-13T20:38:48.083Z,-5.94
2022-12-13T20:41:14.933Z,-5.90
2022-12-13T20:43:42.782Z,-5.84
2022-12-13T20:46:10.920Z,-5.82
2022-12-13T20:48:38.530Z,-5.70
2022-12-13T20:51:05.923Z,-5.74
2022-12-13T20:53:33.161Z,-5.87
2022-12-13T20:55:59.676Z,-5.96
2022-12-13T20:58:26.437Z,-6.20
2022-12-13T21:00:53.222Z,-5.81
2022-12-13T21:03:19.916Z,-5.94
2022-12-13T21:05:46.635Z,-5.98
2022-12-13T21:08:32.609Z,-5.95
2022-12-13T21:11:19.461Z,-5.76
2022-12-13T21:13:49.757Z,-5.75
2022-12-13T21:16:16.612Z,-5.67
2022-12-13T21:18:42.976Z,-5.61
2022-12-13T21:21:09.845Z,-5.66
2022-12-13T21:23:36.453Z,-5.76
2022-12-13T21:26:03.190Z,-5.62
2022-12-13T21:28:29.652Z,-5.60
2022-12-13T21:31:03.216Z,-5.73
2022-12-13T21:33:30.225Z,-5.64
2022-12-13T21:35:56.822Z,-5.68
2022-12-13T21:38:23.282Z,-5.64
2022-12-13T21:40:50.162Z,-5.64
2022-12-13T21:43:17.473Z,-5.70
2022-12-13T21:45:44.909Z,-5.73
2022-12-13T21:48:11.345Z,-5.75
2022-12-13T21:50:37.713Z,-5.84
2022-12-13T21:53:06.346Z,-5.92
2022-12-13T21:55:41.480Z,-5.80
2022-12-13T21:58:27.785Z,-5.61
2022-12-13T22:00:54.337Z,-5.79
2022-12-13T22:03:20.774Z,-5.92
2022-12-13T22:05:47.092Z,-5.72
2022-12-13T22:08:13.409Z,-5.80
2022-12-13T22:10:59.926Z,-5.92
2022-12-13T22:13:26.261Z,-5.78
2022-12-13T22:15:52.689Z,-5.88
2022-12-13T22:18:21.175Z,-5.88
2022-12-13T22:20:55.165Z,-5.78
2022-12-13T22:23:21.501Z,-5.72
2022-12-13T22:25:47.976Z,-5.60
2022-12-13T22:28:15.358Z,-5.50
2022-12-13T22:30:41.869Z,-5.43
2022-12-13T22:33:08.884Z,-5.43
2022-12-13T22:35:37.237Z,-5.43
2022-12-13T22:38:03.639Z,-5.44
2022-12-13T22:40:30.147Z,-5.49
2022-12-13T22:42:56.805Z,-5.41
2022-12-13T22:45:23.128Z,-5.44
2022-12-13T22:47:49.522Z,-5.43
2022-12-13T22:50:16.562Z,-5.58
2022-12-13T22:52:43.054Z,-5.48
2022-12-13T22:55:09.612Z,-5.59
2022-12-13T22:57:35.965Z,-5.60
2022-12-13T23:00:02.373Z,-5.60
2022-12-13T23:02:28.821Z,-5.52
2022-12-13T23:04:55.295Z,-5.49
2022-12-13T23:07:21.838Z,-5.54
2022-12-13T23:09:48.244Z,-5.53
2022-12-13T23:12:33.478Z,-5.61
2022-12-13T23:14:59.796Z,-5.53
2022-12-13T23:17:26.161Z,-5.47
2022-12-13T23:19:53.355Z,-5.53
2022-12-13T23:22:24.269Z,-5.33
2022-12-13T23:24:51.415Z,-5.33
2022-12-13T23:27:18.798Z,-5.36
2022-12-13T23:29:45.264Z,-5.49
2022-12-13T23:32:12.248Z,-5.32
2022-12-13T23:34:38.656Z,-5.41
2022-12-13T23:37:05.006Z,-5.50
2022-12-13T23:39:31.439Z,-5.69
2022-12-13T23:41:59.144Z,-5.68
2022-12-13T23:44:25.530Z,-5.51
2022-12-13T23:46:51.925Z,-5.63
2022-12-13T23:49:19.167Z,-5.50
2022-12-13T23:51:45.498Z,-5.41
2022-12-13T23:54:16.391Z,-5.43
2022-12-13T23:56:43.034Z,-5.47
2022-12-13T23:59:09.368Z,-5.43
